Aérodrome :
LOGIN :

S'inscrire | Disclaimer

   EN    FR    IT 

 










Légende :    VFR   VFR Marginal   IFR   IFR Intensif   IFR Très Intensif
Visi : 
Plafond : 
>= 8 km
>= 3000ft
5 à 8 km
1000 à 3000 ft
1500m à 5 km
500 à 1000 ft
800 à 1500m
200 à 500 ft
< 800m
< 200 ft
Symboles :   Orages  Brouillard  Fortes neiges  Fortes précipitations  Vent > 20 kt
SIGMETs :   Divers  Orages  Givrage  Turbulence  Onde Orograph.  Cendres Volcan.







- Altitude de l'aérodrome : 290 ft
- Code IATA : LAI
- Voir les cartes d'approche


LFRO - Lannion

DERNIER METAR :
  • 251530Z AUTO 07012KT 030V110 CAVOK 05/M03 Q1021 NOSIG

METARs EXPIRÉS :
  • 251500Z AUTO 07011KT 030V110 9999 NSC 06/M03 Q1020 NOSIG
  • 251430Z AUTO 07014KT 030V100 CAVOK 06/M03 Q1020 NOSIG
  • 251400Z AUTO 08011KT 030V120 CAVOK 06/M03 Q1020 NOSIG
  • 251330Z AUTO 08014G24KT 050V110 CAVOK 05/M04 Q1020 NOSIG
  • 251300Z AUTO 07013KT 030V110 CAVOK 05/M04 Q1020 NOSIG

TAF TAF LFRO
Valide du 25 à 12h jusqu'au 26 à 12h UTC


251100Z 2512/2612 07011KT CAVOK
PROB30
TEMPO 2523/2605 1300 MIFG
TEMPO 2605/2612 09017G35KT
Pas de NOTAMs connus pour ce terrain.



MET'MAP, la Météo Aéronautique d'un coup d'oeil ! - Copyright ORBIFLY Décembre 2007 - Disclaimer

ORBIFLY MET'MAP TEAM :

Programmation & Développement : Alexandra Zaïnal
Conception & Développement : Baudouin d'Aumeries
Co-Programmation & Développement : Marc-Olivier Méhu
Soutien technique & logistique : Manuel Goepfert

Contact : metmap@orbifly.com




SOURCES & CREDITS :

   NOAA